Pagrindinis puslapis
METAR-TAF:

METAR-TAF

Oro uostai :

Maršalo Salų tarptautinis oro uostas

Madžūras, Maršalo salos

platuma: 07-04N, ilguma: 171-17E, Aukštis: 2 m

METAR: trūkstamas

Laikas: 09:28 (21:28 UTC)

Prognozė

Ataskaita buvo paskelbta 4 valandos ir 2 minutes, ne 17:26 UTC
Prognozė galioja nuo 08 metu 18 UTC su 09 metu 18 UTC
Vėjas 10 kt iš Rytų/Šiaurės Rytų
Matomumas: 10 km
Mažai debesys ne aukštis 1400 ft
Išsisklaidę debesys ne aukštis 5000 ft
Su prošvaistėmis ne aukštis 12000 ft
Liūtis kaimynystėje
Laikinai
nuo 08 metu 18 UTC su 08 metu 22 UTC
Su prošvaistėmis ne aukštis 1400 ft
lietus

TAF: PKMJ 081726Z 0818/0918 06010KT P6SM VCSH FEW014 SCT050 BKN120 TEMPO 0818/0822 -SHRA BKN014

Orai ataskaitas ir orų prognozės (METAR, TAF).

turimą stotys yra geltonos ir raudonos taškus žemėlapyje.

Perkelti pele per norėdami pamatyti stoties vardą.

Tada spustelėkite, norėdami matyti oro stebėjimo ir prognozės.

Norėdami pakeisti žemėlapį: spustelėkite ant žalios mygtukų su juodo kryžiaus žemyn,; žalią mygtuką su brūkšneliu, jei norite nutolinti; arba žalių rodyklių gretimoms žemėlapius.


METAR-TAF: